Flight Track Log - Related Links

Times and Time Zones

All times are in EDT time to prevent confusion due to time zone crossing. See the SWA22 flight status page for this flight to view local times or setup timezone preferences in your user account.


Time Position Orientation Groundspeed Altitude Reporting Facility
EDT Latitude Longitude Course Direction KTS MPH feet Rate Location/Type
Thu 02:25:29 PM 32.8833 -96.9000 308° West 183 211 2,600  Level Dallas / Fort Worth TRACON
Thu 02:26:35 PM 32.9167 -96.9500 308° West 216 249 5,900 3,217 Climbing Dallas / Fort Worth TRACON
Thu 02:28:15 PM 32.9872 -97.0344 315° West 219 252 11,500 2,738 Climbing Fort Worth Center
Thu 02:29:15 PM 33.0125 -97.1111 291° West 236 272 13,200 2,100 Climbing Fort Worth Center
Thu 02:30:15 PM 33.0253 -97.2178 278° West 280 322 15,700 2,500 Climbing Fort Worth Center
Thu 02:31:15 PM 33.0400 -97.3417 278° West 329 379 18,200 2,250 Climbing Fort Worth Center
Thu 02:32:15 PM 33.0525 -97.4506 278° West 365 420 20,200 2,250 Climbing Fort Worth Center
Thu 02:33:15 PM 33.0711 -97.5869 279° West 378 435 22,700 2,100 Climbing Fort Worth Center
Thu 02:34:15 PM 33.0878 -97.7061 280° West 389 448 24,400 1,750 Climbing Fort Worth Center
Thu 02:35:15 PM 33.1250 -97.8325 289° West 394 453 26,200 1,750 Climbing Fort Worth Center
Thu 02:36:15 PM 33.1661 -97.9744 289° West 406 467 27,900 1,900 Climbing Fort Worth Center
Thu 02:37:15 PM 33.2072 -98.1036 291° West 411 473 30,000 1,300 Climbing Fort Worth Center
Thu 02:38:15 PM 33.2481 -98.2331 291° West 411 473 30,500 1,000 Climbing Fort Worth Center
Thu 02:39:15 PM 33.2869 -98.3553 291° West 403 464 32,000 750 Climbing Fort Worth Center
Thu 02:40:15 PM 33.3236 -98.4775 290° West 397 457 32,000  Level Fort Worth Center
Thu 02:41:15 PM 33.3619 -98.6022 290° West 397 457 32,000  Level Fort Worth Center
Thu 02:42:15 PM 33.4025 -98.7272 291° West 402 463 32,000  Level Fort Worth Center
Thu 02:43:15 PM 33.4389 -98.8497 290° West 402 463 32,000  Level Fort Worth Center
Thu 02:44:15 PM 33.4769 -98.9750 290° West 402 463 32,000  Level Fort Worth Center
Thu 02:45:15 PM 33.5211 -99.1003 293° West 408 470 32,000  Level Fort Worth Center
Thu 02:46:15 PM 33.5908 -99.2039 309° West 401 461 32,000  Level Fort Worth Center
Thu 02:47:15 PM 33.6622 -99.3053 310° West 401 461 32,000  Level Fort Worth Center
Thu 02:48:15 PM 33.7336 -99.4092 310° West 401 461 32,000  Level Fort Worth Center
Thu 02:49:15 PM 33.8031 -99.5131 309° West 401 461 32,000  Level Fort Worth Center
Thu 02:50:15 PM 33.8722 -99.6175 309° West 401 461 32,000  Level Fort Worth Center
Thu 02:51:15 PM 33.9414 -99.7192 309° West 401 461 32,000  Level Fort Worth Center
Thu 02:52:47 PM 34.0436 -99.8714 309° West 397 457 32,000  Level Albuquerque Center
Thu 02:53:49 PM 34.1125 -99.9742 309° West 394 453 32,000  Level Albuquerque Center
Thu 02:54:51 PM 34.1811 -100.0786 308° West 394 453 32,000  Level Albuquerque Center
Thu 02:55:52 PM 34.2536 -100.1864 309° West 393 452 32,000  Level Albuquerque Center
Thu 02:56:54 PM 34.3214 -100.2900 308° West 392 451 32,000  Level Albuquerque Center
Thu 02:57:56 PM 34.3903 -100.3914 309° West 392 451 32,000 -97 Level Albuquerque Center
Thu 02:58:58 PM 34.4581 -100.4950 308° West 392 451 31,800 -726 Descending Albuquerque Center
Thu 03:00:00 PM 34.5389 -100.6192 308° West 391 450 30,500 -1,113 Descending Albuquerque Center
Thu 03:01:02 PM 34.6050 -100.7194 309° West 384 442 29,500 -1,694 Descending Albuquerque Center
Thu 03:02:04 PM 34.6714 -100.8206 309° West 383 441 27,000 -2,419 Descending Albuquerque Center
Thu 03:03:06 PM 34.7350 -100.9189 308° West 376 433 24,500 -3,171 Descending Albuquerque Center
Thu 03:04:07 PM 34.7975 -101.0119 309° West 364 419 20,500 -3,756 Descending Albuquerque Center
Thu 03:05:09 PM 34.8592 -101.1089 308° West 362 417 16,800 -3,871 Descending Albuquerque Center
Thu 03:06:11 PM 34.9208 -101.2294 302° West 354 407 12,500 -3,339 Descending Albuquerque Center
Thu 03:07:13 PM 34.9761 -101.3211 306° West 343 395 9,900 -1,597 Descending Albuquerque Center
Thu 03:08:15 PM 35.0244 -101.4003 307° West 312 359 9,200 -1,306 Descending Albuquerque Center
Thu 03:09:17 PM 35.0697 -101.4747 307° West 284 327 7,200 -1,415 Descending Albuquerque Center
Thu 03:10:18 PM 35.1144 -101.5492 306° West 277 319 6,300 -878 Descending Albuquerque Center
Thu 03:11:20 PM 35.1456 -101.6011 306° West 220 253 5,400 -871 Descending Albuquerque Center
Thu 03:12:22 PM 35.1756 -101.6353 317° Northwest 174 200 4,500 -726 Descending Albuquerque Center
Thu 03:13:24 PM 35.2047 -101.6683 317° Northwest 153 176 3,900 -581 Descending Albuquerque Center
Thu 03:15:00 PM 35.2167 -101.7000 219° Southwest  Level FlightAware Approximate

Login

Don't have an account? Register now (free) for customized features, flight alerts, and more!